createdAt,value
2019-01-25T00:00:36.938Z,79.59
2019-01-25T00:03:09.800Z,79.56
2019-01-25T00:05:34.648Z,79.65
2019-01-25T00:08:01.866Z,79.73
2019-01-25T00:10:30.081Z,79.70
2019-01-25T00:12:57.303Z,79.64
2019-01-25T00:15:25.450Z,79.57
2019-01-25T00:17:52.607Z,79.54
2019-01-25T00:20:19.838Z,79.53
2019-01-25T00:22:47.051Z,79.57
2019-01-25T00:25:14.371Z,79.62
2019-01-25T00:27:41.587Z,79.67
2019-01-25T00:30:10.544Z,79.72
2019-01-25T00:32:37.719Z,79.79
2019-01-25T00:35:05.784Z,79.79
2019-01-25T00:37:33.034Z,79.74
2019-01-25T00:40:06.078Z,79.69
2019-01-25T00:42:29.667Z,79.74
2019-01-25T00:44:56.962Z,79.67
2019-01-25T00:47:24.075Z,79.58
2019-01-25T00:49:53.143Z,79.74
2019-01-25T00:52:20.349Z,79.78
2019-01-25T00:54:49.276Z,79.72
2019-01-25T00:57:17.512Z,79.74
2019-01-25T00:59:44.734Z,79.79
2019-01-25T01:02:11.891Z,79.84
2019-01-25T01:04:40.772Z,79.75
2019-01-25T01:07:07.979Z,79.69
2019-01-25T01:09:35.422Z,79.67
2019-01-25T01:12:02.843Z,79.62
2019-01-25T01:14:30.040Z,79.51
2019-01-25T01:16:57.393Z,79.45
2019-01-25T01:19:24.742Z,79.40
2019-01-25T01:21:51.953Z,79.43
2019-01-25T01:24:20.945Z,79.43
2019-01-25T01:26:48.051Z,79.46
2019-01-25T01:29:16.644Z,79.44
2019-01-25T01:31:45.721Z,79.35
2019-01-25T01:34:12.867Z,79.28
2019-01-25T01:36:41.857Z,79.24
2019-01-25T01:39:09.120Z,79.31
2019-01-25T01:41:38.240Z,79.37
2019-01-25T01:44:05.532Z,79.45
2019-01-25T01:46:32.952Z,79.44
2019-01-25T01:49:00.261Z,79.34
2019-01-25T01:51:27.505Z,79.31
2019-01-25T01:53:54.620Z,79.29
2019-01-25T01:56:21.928Z,79.39
2019-01-25T01:58:49.164Z,79.38
2019-01-25T02:01:16.655Z,79.38
2019-01-25T02:03:43.759Z,79.30
2019-01-25T02:06:10.868Z,79.28
2019-01-25T02:08:37.969Z,79.36
2019-01-25T02:11:05.079Z,79.37
2019-01-25T02:13:32.309Z,79.36
2019-01-25T02:15:59.451Z,79.34
2019-01-25T02:18:26.568Z,79.42
2019-01-25T02:20:53.764Z,79.43
2019-01-25T02:23:20.883Z,79.45
2019-01-25T02:25:47.986Z,79.50
2019-01-25T02:28:15.091Z,79.58
2019-01-25T02:30:42.201Z,79.51
2019-01-25T02:33:09.325Z,79.56
2019-01-25T02:35:38.034Z,79.58
2019-01-25T02:38:07.028Z,79.49
2019-01-25T02:40:39.272Z,79.46
2019-01-25T02:43:03.747Z,79.43
2019-01-25T02:45:30.989Z,79.37
2019-01-25T02:47:58.245Z,79.28
2019-01-25T02:50:27.076Z,79.27
2019-01-25T02:52:54.363Z,79.23
2019-01-25T02:55:21.472Z,79.15
2019-01-25T02:57:50.382Z,79.12
2019-01-25T03:00:22.496Z,79.12
2019-01-25T03:02:50.015Z,79.12
2019-01-25T03:05:19.245Z,79.20
2019-01-25T03:07:46.956Z,79.21
2019-01-25T03:10:14.810Z,79.18
2019-01-25T03:12:42.148Z,79.15
2019-01-25T03:15:12.120Z,79.12
2019-01-25T03:17:39.520Z,79.12
2019-01-25T03:20:07.595Z,79.11
2019-01-25T03:22:34.947Z,79.17
2019-01-25T03:25:02.171Z,79.12
2019-01-25T03:27:29.350Z,79.13
2019-01-25T03:29:56.603Z,79.10
2019-01-25T03:32:23.958Z,79.08
2019-01-25T03:34:51.087Z,79.02
2019-01-25T03:37:18.188Z,78.97
2019-01-25T03:39:47.305Z,78.93
2019-01-25T03:42:14.610Z,78.97
2019-01-25T03:44:44.645Z,78.98
2019-01-25T03:47:12.024Z,78.99
2019-01-25T03:49:39.236Z,79.04
2019-01-25T03:52:06.451Z,79.05
2019-01-25T03:54:33.656Z,79.03
2019-01-25T03:57:00.852Z,79.04
2019-01-25T03:59:28.145Z,79.08
2019-01-25T04:01:55.471Z,79.12
2019-01-25T04:04:22.760Z,79.15
2019-01-25T04:06:50.888Z,79.15
2019-01-25T04:09:18.075Z,79.14
2019-01-25T04:11:45.309Z,79.14
2019-01-25T04:14:12.593Z,79.19
2019-01-25T04:16:40.036Z,79.21
2019-01-25T04:19:07.247Z,79.23
2019-01-25T04:21:34.479Z,79.16
2019-01-25T04:24:02.040Z,79.16
2019-01-25T04:26:30.449Z,79.17
2019-01-25T04:28:58.717Z,79.19
2019-01-25T04:31:28.482Z,79.19
2019-01-25T04:33:55.742Z,79.14
2019-01-25T04:36:26.466Z,79.11
2019-01-25T04:38:57.836Z,79.04
2019-01-25T04:41:27.077Z,79.00
2019-01-25T04:43:54.185Z,78.98
2019-01-25T04:46:21.304Z,79.01
2019-01-25T04:48:48.400Z,79.08
2019-01-25T04:51:15.535Z,79.08
2019-01-25T04:53:42.634Z,79.05
2019-01-25T04:56:09.733Z,79.00
2019-01-25T04:58:36.835Z,78.95
2019-01-25T05:01:08.553Z,78.95
2019-01-25T05:03:37.803Z,79.01
2019-01-25T05:06:05.917Z,79.08
2019-01-25T05:08:33.028Z,79.12
2019-01-25T05:11:00.197Z,79.12
2019-01-25T05:13:27.299Z,79.08
2019-01-25T05:15:54.417Z,79.07
2019-01-25T05:18:21.619Z,79.07
2019-01-25T05:20:50.668Z,79.02
2019-01-25T05:23:17.726Z,78.97
2019-01-25T05:25:44.839Z,78.97
2019-01-25T05:28:18.479Z,78.92
2019-01-25T05:31:11.198Z,78.88
2019-01-25T05:33:38.313Z,78.86
2019-01-25T05:36:05.528Z,78.85
2019-01-25T05:38:32.666Z,78.77
2019-01-25T05:40:59.799Z,78.80
2019-01-25T05:43:30.613Z,78.81
2019-01-25T05:45:57.716Z,78.82
2019-01-25T05:48:28.291Z,78.78
2019-01-25T05:50:59.580Z,78.77
2019-01-25T05:53:26.685Z,78.76
2019-01-25T05:55:53.801Z,78.83
2019-01-25T05:58:22.301Z,78.85
2019-01-25T06:00:50.652Z,78.89
2019-01-25T06:03:17.967Z,78.88
2019-01-25T06:05:45.966Z,78.87
2019-01-25T06:08:30.686Z,78.89
2019-01-25T06:11:08.842Z,78.93
2019-01-25T06:13:39.537Z,78.92
2019-01-25T06:16:07.021Z,78.91
2019-01-25T06:18:34.391Z,78.88
2019-01-25T06:21:01.708Z,78.84
2019-01-25T06:23:29.014Z,78.79
2019-01-25T06:25:57.354Z,78.77
2019-01-25T06:28:24.592Z,78.74
2019-01-25T06:30:52.565Z,78.71
2019-01-25T06:33:19.952Z,78.73
2019-01-25T06:35:47.404Z,78.78
2019-01-25T06:38:14.750Z,78.78
2019-01-25T06:40:41.888Z,78.79
2019-01-25T06:43:08.990Z,78.82
2019-01-25T06:45:36.084Z,78.78
2019-01-25T06:48:03.427Z,78.78
2019-01-25T06:50:30.568Z,78.79
2019-01-25T06:52:57.665Z,78.69
2019-01-25T06:55:24.777Z,78.76
2019-01-25T06:58:11.529Z,78.84
2019-01-25T07:00:43.279Z,78.92
2019-01-25T07:03:10.369Z,78.93
2019-01-25T07:05:37.470Z,78.94
2019-01-25T07:08:04.565Z,79.00
2019-01-25T07:10:31.669Z,79.01
2019-01-25T07:12:58.762Z,78.96
2019-01-25T07:15:25.864Z,78.87
2019-01-25T07:17:52.970Z,78.90
2019-01-25T07:20:20.061Z,78.97
2019-01-25T07:22:47.171Z,78.93
2019-01-25T07:25:14.566Z,78.90
2019-01-25T07:27:41.662Z,78.87
2019-01-25T07:30:09.836Z,78.91
2019-01-25T07:32:36.938Z,78.90
2019-01-25T07:35:04.944Z,78.93
2019-01-25T07:37:32.096Z,78.93
2019-01-25T07:40:00.658Z,78.94
2019-01-25T07:42:28.097Z,79.02
2019-01-25T07:44:55.504Z,78.99
2019-01-25T07:47:22.606Z,78.96
2019-01-25T07:49:49.705Z,78.96
2019-01-25T07:52:16.839Z,78.90
2019-01-25T07:54:44.041Z,78.95
2019-01-25T07:57:11.092Z,79.01
2019-01-25T07:59:38.205Z,79.00
2019-01-25T08:02:05.303Z,78.90
2019-01-25T08:04:32.412Z,78.77
2019-01-25T08:07:02.907Z,78.75
2019-01-25T08:09:30.013Z,78.86
2019-01-25T08:11:57.119Z,78.86
2019-01-25T08:14:24.278Z,78.96
2019-01-25T08:16:51.358Z,79.02
2019-01-25T08:19:21.249Z,79.13
2019-01-25T08:21:48.540Z,79.23
2019-01-25T08:24:15.710Z,79.27
2019-01-25T08:26:45.887Z,79.29
2019-01-25T08:29:12.981Z,79.22
2019-01-25T08:31:42.441Z,79.24
2019-01-25T08:34:09.575Z,79.22
2019-01-25T08:36:36.917Z,79.25
2019-01-25T08:39:07.545Z,79.30
2019-01-25T08:41:34.795Z,79.24
2019-01-25T08:44:05.124Z,79.22
2019-01-25T08:46:33.871Z,79.25
2019-01-25T08:49:01.469Z,79.21
2019-01-25T08:51:28.569Z,79.17
2019-01-25T08:53:55.744Z,79.20
2019-01-25T08:56:22.836Z,79.15
2019-01-25T08:58:50.146Z,79.15
2019-01-25T09:01:17.341Z,79.18
2019-01-25T09:03:47.361Z,79.24
2019-01-25T09:06:14.464Z,79.20
2019-01-25T09:08:49.259Z,79.18
2019-01-25T09:11:16.412Z,79.16
2019-01-25T09:13:43.521Z,79.16
2019-01-25T09:16:10.644Z,79.16
2019-01-25T09:18:37.775Z,79.10
2019-01-25T09:21:16.160Z,79.11
2019-01-25T09:23:43.370Z,79.14
2019-01-25T09:26:10.491Z,79.14
2019-01-25T09:28:37.593Z,79.09
2019-01-25T09:31:04.809Z,79.06
2019-01-25T09:33:34.301Z,79.07
2019-01-25T09:36:08.994Z,79.03
2019-01-25T09:38:36.124Z,78.96
2019-01-25T09:41:03.354Z,78.98
2019-01-25T09:43:30.472Z,79.07
2019-01-25T09:45:57.604Z,79.12
2019-01-25T09:48:24.721Z,79.12
2019-01-25T09:50:52.814Z,79.09
2019-01-25T09:53:20.462Z,79.04
2019-01-25T09:55:47.553Z,79.06
2019-01-25T09:58:17.328Z,79.08
2019-01-25T10:00:56.888Z,79.11
2019-01-25T10:03:26.669Z,79.21
2019-01-25T10:05:56.571Z,79.31
2019-01-25T10:08:25.851Z,79.28
2019-01-25T10:10:52.952Z,79.24
2019-01-25T10:13:20.081Z,79.28
2019-01-25T10:15:47.186Z,79.31
2019-01-25T10:18:25.110Z,79.31
2019-01-25T10:20:55.245Z,79.32
2019-01-25T10:23:22.446Z,79.29
2019-01-25T10:25:55.251Z,79.32
2019-01-25T10:28:24.387Z,79.34
2019-01-25T10:30:51.767Z,79.31
2019-01-25T10:33:20.325Z,79.29
2019-01-25T10:35:47.600Z,79.26
2019-01-25T10:38:14.854Z,79.22
2019-01-25T10:40:42.014Z,79.27
2019-01-25T10:43:12.000Z,79.32
2019-01-25T10:45:39.921Z,79.31
2019-01-25T10:48:07.450Z,79.23
2019-01-25T10:50:34.657Z,79.19
2019-01-25T10:53:03.741Z,79.21
2019-01-25T10:55:31.054Z,79.20
2019-01-25T10:57:58.165Z,79.16
2019-01-25T11:00:25.446Z,79.15
2019-01-25T11:02:57.873Z,79.15
2019-01-25T11:05:23.944Z,79.10
2019-01-25T11:07:51.115Z,79.12
2019-01-25T11:10:20.304Z,79.10
2019-01-25T11:12:47.637Z,79.14
2019-01-25T11:15:18.865Z,79.15
2019-01-25T11:17:46.206Z,79.16
2019-01-25T11:20:16.075Z,79.16
2019-01-25T11:22:43.433Z,79.16
2019-01-25T11:25:14.372Z,79.12
2019-01-25T11:27:41.729Z,79.08
2019-01-25T11:30:10.530Z,79.04
2019-01-25T11:32:38.791Z,79.00
2019-01-25T11:35:06.107Z,79.00
2019-01-25T11:37:33.484Z,79.05
2019-01-25T11:40:00.801Z,79.05
2019-01-25T11:42:27.982Z,78.92
2019-01-25T11:44:55.335Z,78.88
2019-01-25T11:47:22.465Z,78.86
2019-01-25T11:49:49.872Z,78.94
2019-01-25T11:52:18.261Z,78.99
2019-01-25T11:54:45.472Z,79.01
2019-01-25T11:57:15.371Z,79.01
2019-01-25T11:59:43.580Z,78.96
2019-01-25T12:02:11.765Z,78.88
2019-01-25T12:04:42.166Z,78.88
2019-01-25T12:07:10.443Z,78.83
2019-01-25T12:09:38.895Z,78.86
2019-01-25T12:12:06.016Z,78.94
2019-01-25T12:14:33.152Z,78.98
2019-01-25T12:17:01.930Z,78.99
2019-01-25T12:19:29.372Z,78.96
2019-01-25T12:21:56.549Z,78.93
2019-01-25T12:24:23.638Z,78.88
2019-01-25T12:26:50.741Z,78.86
2019-01-25T12:29:20.115Z,78.83
2019-01-25T12:31:47.382Z,78.83
2019-01-25T12:34:14.475Z,78.75
2019-01-25T12:36:41.601Z,78.72
2019-01-25T12:39:09.208Z,78.81
2019-01-25T12:41:36.315Z,78.96
2019-01-25T12:44:03.876Z,79.00
2019-01-25T12:46:32.113Z,78.98
2019-01-25T12:48:59.383Z,79.12
2019-01-25T12:51:35.982Z,78.98
2019-01-25T12:54:03.688Z,78.92
2019-01-25T12:56:30.794Z,78.91
2019-01-25T12:58:58.020Z,78.87
2019-01-25T13:01:25.117Z,78.87
2019-01-25T13:03:52.332Z,78.84
2019-01-25T13:06:19.500Z,78.82
2019-01-25T13:08:46.593Z,78.80
2019-01-25T13:11:13.677Z,78.75
2019-01-25T13:13:40.781Z,78.78
2019-01-25T13:16:07.933Z,78.91
2019-01-25T13:18:35.050Z,79.01
2019-01-25T13:21:02.145Z,79.06
2019-01-25T13:23:31.809Z,79.08
2019-01-25T13:25:58.923Z,79.03
2019-01-25T13:28:26.186Z,79.00
2019-01-25T13:30:56.605Z,78.97
2019-01-25T13:33:23.698Z,79.00
2019-01-25T13:35:50.789Z,78.94
2019-01-25T13:38:18.936Z,78.90
2019-01-25T13:40:47.806Z,79.01
2019-01-25T13:43:14.900Z,79.16
2019-01-25T13:45:42.020Z,79.21
2019-01-25T13:48:09.228Z,79.20
2019-01-25T13:50:38.052Z,79.17
2019-01-25T13:53:07.100Z,79.24
2019-01-25T13:55:34.223Z,79.22
2019-01-25T13:58:01.365Z,79.24
2019-01-25T14:00:30.539Z,79.27
2019-01-25T14:02:57.674Z,79.35
2019-01-25T14:05:24.798Z,79.42
2019-01-25T14:07:54.649Z,79.49
2019-01-25T14:10:26.265Z,79.51
2019-01-25T14:12:53.363Z,79.47
2019-01-25T14:15:20.554Z,79.46
2019-01-25T14:17:49.332Z,79.45
2019-01-25T14:20:23.504Z,79.48
2019-01-25T14:22:49.555Z,79.60
2019-01-25T14:25:19.500Z,79.67
2019-01-25T14:27:46.665Z,79.65
2019-01-25T14:30:25.695Z,79.60
2019-01-25T14:32:52.788Z,79.63
2019-01-25T14:35:20.012Z,79.62
2019-01-25T14:37:49.891Z,79.72
2019-01-25T14:40:17.007Z,79.74
2019-01-25T14:42:44.129Z,79.78
2019-01-25T14:45:20.274Z,79.82
2019-01-25T14:47:47.481Z,79.90
2019-01-25T14:50:16.677Z,79.85
2019-01-25T14:52:43.773Z,79.80
2019-01-25T14:55:11.012Z,79.78
2019-01-25T14:57:38.227Z,79.75
2019-01-25T15:00:07.621Z,79.69
2019-01-25T15:02:35.009Z,79.64
2019-01-25T15:05:02.205Z,79.60
2019-01-25T15:07:29.304Z,79.61
2019-01-25T15:09:56.412Z,79.62
2019-01-25T15:12:23.510Z,79.61
2019-01-25T15:14:50.595Z,79.64
2019-01-25T15:17:17.689Z,79.64
2019-01-25T15:19:44.920Z,79.67
2019-01-25T15:22:12.007Z,79.62
2019-01-25T15:24:39.102Z,79.60
2019-01-25T15:27:06.297Z,79.62
2019-01-25T15:29:33.441Z,79.67
2019-01-25T15:32:00.580Z,79.62
2019-01-25T15:34:27.690Z,79.64
2019-01-25T15:36:54.783Z,79.66
2019-01-25T15:39:21.925Z,79.64
2019-01-25T15:41:49.035Z,79.69
2019-01-25T15:44:16.134Z,79.72
2019-01-25T15:46:43.238Z,79.71
2019-01-25T15:49:10.384Z,79.65
2019-01-25T15:51:37.560Z,79.66
2019-01-25T15:54:04.738Z,79.65
2019-01-25T15:56:31.828Z,79.64
2019-01-25T15:58:58.927Z,79.67
2019-01-25T16:01:26.029Z,79.63
2019-01-25T16:03:53.136Z,79.63
2019-01-25T16:06:20.279Z,79.70
2019-01-25T16:08:47.377Z,79.71
2019-01-25T16:11:14.473Z,79.71
2019-01-25T16:13:41.568Z,79.68
2019-01-25T16:16:08.665Z,79.75
2019-01-25T16:18:35.777Z,79.74
2019-01-25T16:21:03.017Z,79.71
2019-01-25T16:23:30.132Z,79.72
2019-01-25T16:25:57.218Z,79.69
2019-01-25T16:28:24.348Z,79.68
2019-01-25T16:30:51.464Z,79.70
2019-01-25T16:33:18.578Z,79.73
2019-01-25T16:35:45.701Z,79.71
2019-01-25T16:38:12.815Z,79.70
2019-01-25T16:40:39.911Z,79.70
2019-01-25T16:43:08.772Z,79.73
2019-01-25T16:45:38.193Z,79.81
2019-01-25T16:48:05.886Z,79.83
2019-01-25T16:50:33.549Z,79.81
2019-01-25T16:53:00.683Z,79.81
2019-01-25T16:55:27.887Z,79.80
2019-01-25T16:57:54.977Z,79.77
2019-01-25T17:00:30.726Z,79.79
2019-01-25T17:02:57.825Z,79.79
2019-01-25T17:05:25.126Z,79.76
2019-01-25T17:07:52.236Z,79.76
2019-01-25T17:10:19.348Z,79.76
2019-01-25T17:12:46.480Z,79.70
2019-01-25T17:15:14.202Z,79.72
2019-01-25T17:17:41.497Z,79.74
2019-01-25T17:20:08.987Z,79.79
2019-01-25T17:22:36.124Z,79.84
2019-01-25T17:25:04.187Z,79.89
2019-01-25T17:27:31.304Z,79.94
2019-01-25T17:29:58.421Z,79.91
2019-01-25T17:32:25.530Z,79.93
2019-01-25T17:34:52.624Z,79.89
2019-01-25T17:37:19.726Z,79.89
2019-01-25T17:39:46.921Z,79.92
2019-01-25T17:42:14.018Z,80.04
2019-01-25T17:44:41.626Z,79.92
2019-01-25T17:47:08.789Z,79.92
2019-01-25T17:49:35.881Z,79.88
2019-01-25T17:52:03.226Z,79.86
2019-01-25T17:54:30.357Z,79.83
2019-01-25T17:56:57.484Z,79.85
2019-01-25T17:59:25.728Z,79.88
2019-01-25T18:01:52.832Z,79.93
2019-01-25T18:04:19.980Z,79.88
2019-01-25T18:06:47.076Z,79.89
2019-01-25T18:09:14.213Z,79.90
2019-01-25T18:11:41.299Z,79.89
2019-01-25T18:14:08.476Z,79.87
2019-01-25T18:16:35.898Z,79.81
2019-01-25T18:19:03.348Z,79.85
2019-01-25T18:21:30.699Z,79.85
2019-01-25T18:23:58.041Z,79.93
2019-01-25T18:26:27.038Z,80.08
2019-01-25T18:29:19.744Z,80.06
2019-01-25T18:31:48.650Z,80.08
2019-01-25T18:34:16.054Z,79.95
2019-01-25T18:36:43.414Z,80.02
2019-01-25T18:39:12.124Z,79.96
2019-01-25T18:41:41.147Z,80.21
2019-01-25T18:44:08.442Z,80.16
2019-01-25T18:46:37.357Z,79.97
2019-01-25T18:49:04.450Z,79.90
2019-01-25T18:51:31.561Z,79.89
2019-01-25T18:53:58.673Z,79.88
2019-01-25T18:56:26.098Z,79.92
2019-01-25T18:58:55.169Z,79.98
2019-01-25T19:01:22.284Z,80.00
2019-01-25T19:03:50.746Z,80.01
2019-01-25T19:06:18.021Z,79.97
2019-01-25T19:08:46.918Z,80.00
2019-01-25T19:11:14.261Z,80.06
2019-01-25T19:13:41.599Z,79.99
2019-01-25T19:16:10.115Z,80.00
2019-01-25T19:18:37.467Z,80.01
2019-01-25T19:21:04.677Z,79.98
2019-01-25T19:23:32.875Z,79.94
2019-01-25T19:25:59.970Z,79.95
2019-01-25T19:28:27.552Z,79.92
2019-01-25T19:30:54.860Z,79.90
2019-01-25T19:33:23.398Z,79.95
2019-01-25T19:35:50.819Z,79.94
2019-01-25T19:38:20.203Z,79.95
2019-01-25T19:40:47.589Z,79.89
2019-01-25T19:43:16.613Z,79.87
2019-01-25T19:45:45.731Z,79.91
2019-01-25T19:48:13.032Z,79.87
2019-01-25T19:50:42.989Z,79.81
2019-01-25T19:53:10.595Z,79.76
2019-01-25T19:55:38.555Z,79.74
2019-01-25T19:58:07.712Z,79.75
2019-01-25T20:00:36.889Z,79.82
2019-01-25T20:03:05.951Z,79.84
2019-01-25T20:05:34.966Z,79.85
2019-01-25T20:08:02.654Z,79.91
2019-01-25T20:10:29.993Z,79.90
2019-01-25T20:12:57.569Z,79.98
2019-01-25T20:15:26.591Z,80.02
2019-01-25T20:17:54.149Z,80.02
2019-01-25T20:20:23.713Z,79.98
2019-01-25T20:22:53.286Z,79.95
2019-01-25T20:25:20.843Z,79.99
2019-01-25T20:27:48.184Z,79.96
2019-01-25T20:30:18.439Z,79.94
2019-01-25T20:32:45.917Z,79.87
2019-01-25T20:35:18.240Z,79.83
2019-01-25T20:37:48.343Z,79.78
2019-01-25T20:40:15.971Z,79.79
2019-01-25T20:42:43.241Z,79.83
2019-01-25T20:45:13.715Z,79.87
2019-01-25T20:47:41.209Z,79.86
2019-01-25T20:50:11.416Z,79.85
2019-01-25T20:52:40.570Z,79.80
2019-01-25T20:55:09.548Z,79.79
2019-01-25T20:57:38.469Z,79.77
2019-01-25T21:00:12.428Z,79.79
2019-01-25T21:02:39.893Z,79.84
2019-01-25T21:05:07.556Z,79.83
2019-01-25T21:07:35.118Z,79.87
2019-01-25T21:10:03.602Z,79.89
2019-01-25T21:12:31.225Z,79.86
2019-01-25T21:14:58.440Z,79.91
2019-01-25T21:17:25.549Z,79.93
2019-01-25T21:19:52.700Z,79.86
2019-01-25T21:22:19.822Z,79.86
2019-01-25T21:24:46.991Z,79.93
2019-01-25T21:27:14.663Z,79.93
2019-01-25T21:29:42.247Z,79.87
2019-01-25T21:32:09.546Z,79.90
2019-01-25T21:34:36.839Z,79.83
2019-01-25T21:37:04.169Z,79.87
2019-01-25T21:39:31.545Z,79.99
2019-01-25T21:41:58.676Z,80.02
2019-01-25T21:44:25.811Z,80.07
2019-01-25T21:46:56.537Z,80.08
2019-01-25T21:49:23.618Z,80.06
2019-01-25T21:51:50.776Z,80.03
2019-01-25T21:54:17.944Z,80.00
2019-01-25T21:56:45.058Z,79.97
2019-01-25T21:59:12.264Z,79.98
2019-01-25T22:01:42.323Z,79.94
2019-01-25T22:04:16.262Z,79.98
2019-01-25T22:06:43.412Z,79.98
2019-01-25T22:09:14.374Z,79.96
2019-01-25T22:11:46.719Z,79.89
2019-01-25T22:14:13.823Z,79.86
2019-01-25T22:16:40.982Z,79.90
2019-01-25T22:19:10.345Z,79.87
2019-01-25T22:21:39.988Z,79.82
2019-01-25T22:24:07.104Z,79.86
2019-01-25T22:26:36.062Z,79.85
2019-01-25T22:29:03.323Z,79.95
2019-01-25T22:31:30.428Z,80.05
2019-01-25T22:33:57.577Z,80.16
2019-01-25T22:36:24.753Z,80.16
2019-01-25T22:38:53.326Z,80.15
2019-01-25T22:41:49.981Z,80.05
2019-01-25T22:44:19.889Z,80.00
2019-01-25T22:46:50.572Z,79.93
2019-01-25T22:49:19.740Z,79.85
2019-01-25T22:51:46.866Z,79.82
2019-01-25T22:54:14.004Z,79.79
2019-01-25T22:56:41.117Z,79.85
2019-01-25T22:59:08.340Z,79.88
2019-01-25T23:01:35.772Z,79.93
2019-01-25T23:04:32.719Z,80.03
2019-01-25T23:07:21.720Z,80.08
2019-01-25T23:09:56.504Z,80.07
2019-01-25T23:12:23.612Z,80.08
2019-01-25T23:14:50.744Z,80.05
2019-01-25T23:17:17.865Z,79.96
2019-01-25T23:19:45.316Z,79.96
2019-01-25T23:22:12.496Z,80.04
2019-01-25T23:24:39.647Z,79.99
2019-01-25T23:27:06.740Z,79.96
2019-01-25T23:29:35.343Z,80.01
2019-01-25T23:32:02.848Z,80.01
2019-01-25T23:34:30.020Z,80.02
2019-01-25T23:36:57.114Z,80.04
2019-01-25T23:39:27.292Z,80.09
2019-01-25T23:41:54.726Z,80.09
2019-01-25T23:44:23.764Z,80.13
2019-01-25T23:46:56.730Z,80.15
2019-01-25T23:49:25.011Z,80.16
2019-01-25T23:51:52.444Z,80.10
2019-01-25T23:54:22.652Z,80.10
2019-01-25T23:56:52.103Z,80.15
2019-01-25T23:59:19.310Z,80.16
